sensor_id;sensor_type;location;lat;lon;timestamp;P1;durP1;ratioP1;P2;durP2;ratioP2
69854;SDS011;57146;48.140;16.304;2023-05-21T00:02:16;12.85;;;6.57;;
69854;SDS011;57146;48.140;16.304;2023-05-21T00:04:45;14.57;;;6.63;;
69854;SDS011;57146;48.140;16.304;2023-05-21T00:07:37;13.27;;;6.40;;
69854;SDS011;57146;48.140;16.304;2023-05-21T00:10:05;13.45;;;6.72;;
69854;SDS011;57146;48.140;16.304;2023-05-21T00:12:33;12.32;;;6.32;;
69854;SDS011;57146;48.140;16.304;2023-05-21T00:15:01;14.15;;;6.80;;
69854;SDS011;57146;48.140;16.304;2023-05-21T00:17:28;14.70;;;6.53;;
69854;SDS011;57146;48.140;16.304;2023-05-21T00:19:55;14.10;;;6.50;;
69854;SDS011;57146;48.140;16.304;2023-05-21T00:22:22;14.43;;;7.30;;
69854;SDS011;57146;48.140;16.304;2023-05-21T00:24:49;14.02;;;7.20;;
69854;SDS011;57146;48.140;16.304;2023-05-21T00:27:16;12.85;;;6.75;;
69854;SDS011;57146;48.140;16.304;2023-05-21T00:29:44;14.70;;;6.63;;
69854;SDS011;57146;48.140;16.304;2023-05-21T00:32:11;12.70;;;6.43;;
69854;SDS011;57146;48.140;16.304;2023-05-21T00:34:40;14.63;;;6.90;;
69854;SDS011;57146;48.140;16.304;2023-05-21T00:37:07;14.18;;;6.80;;
69854;SDS011;57146;48.140;16.304;2023-05-21T00:39:34;13.55;;;6.45;;
69854;SDS011;57146;48.140;16.304;2023-05-21T00:42:01;13.60;;;6.93;;
69854;SDS011;57146;48.140;16.304;2023-05-21T00:44:28;14.23;;;7.18;;
69854;SDS011;57146;48.140;16.304;2023-05-21T00:46:55;14.40;;;6.53;;
69854;SDS011;57146;48.140;16.304;2023-05-21T00:49:24;13.50;;;6.82;;
69854;SDS011;57146;48.140;16.304;2023-05-21T00:51:51;13.60;;;6.70;;
69854;SDS011;57146;48.140;16.304;2023-05-21T00:54:21;14.37;;;5.97;;
69854;SDS011;57146;48.140;16.304;2023-05-21T00:56:49;14.48;;;7.05;;
69854;SDS011;57146;48.140;16.304;2023-05-21T00:59:16;12.73;;;6.30;;
69854;SDS011;57146;48.140;16.304;2023-05-21T01:01:44;14.15;;;6.72;;
69854;SDS011;57146;48.140;16.304;2023-05-21T01:04:36;12.77;;;6.60;;
69854;SDS011;57146;48.140;16.304;2023-05-21T01:07:05;13.30;;;6.33;;
69854;SDS011;57146;48.140;16.304;2023-05-21T01:09:34;12.95;;;6.50;;
69854;SDS011;57146;48.140;16.304;2023-05-21T01:12:01;13.65;;;6.75;;
69854;SDS011;57146;48.140;16.304;2023-05-21T01:14:53;13.82;;;6.75;;
69854;SDS011;57146;48.140;16.304;2023-05-21T01:17:22;12.75;;;5.93;;
69854;SDS011;57146;48.140;16.304;2023-05-21T01:19:49;11.70;;;6.23;;
69854;SDS011;57146;48.140;16.304;2023-05-21T01:22:20;14.35;;;6.85;;
69854;SDS011;57146;48.140;16.304;2023-05-21T01:24:52;13.93;;;6.60;;
69854;SDS011;57146;48.140;16.304;2023-05-21T01:27:20;13.77;;;6.97;;
69854;SDS011;57146;48.140;16.304;2023-05-21T01:29:48;14.68;;;7.28;;
69854;SDS011;57146;48.140;16.304;2023-05-21T01:40:44;12.10;;;6.25;;
69854;SDS011;57146;48.140;16.304;2023-05-21T01:43:17;11.63;;;6.22;;
69854;SDS011;57146;48.140;16.304;2023-05-21T01:45:45;14.33;;;6.77;;
69854;SDS011;57146;48.140;16.304;2023-05-21T01:48:13;13.93;;;6.00;;
69854;SDS011;57146;48.140;16.304;2023-05-21T01:50:45;12.00;;;6.32;;
69854;SDS011;57146;48.140;16.304;2023-05-21T01:53:15;15.63;;;7.20;;
69854;SDS011;57146;48.140;16.304;2023-05-21T01:55:43;14.43;;;6.38;;
69854;SDS011;57146;48.140;16.304;2023-05-21T01:58:11;12.07;;;5.77;;
69854;SDS011;57146;48.140;16.304;2023-05-21T02:00:40;13.63;;;6.47;;
69854;SDS011;57146;48.140;16.304;2023-05-21T02:03:07;13.75;;;6.47;;
69854;SDS011;57146;48.140;16.304;2023-05-21T02:05:34;13.52;;;6.72;;
69854;SDS011;57146;48.140;16.304;2023-05-21T02:08:04;12.43;;;5.93;;
69854;SDS011;57146;48.140;16.304;2023-05-21T02:10:34;15.30;;;6.67;;
69854;SDS011;57146;48.140;16.304;2023-05-21T02:13:05;14.30;;;6.43;;
69854;SDS011;57146;48.140;16.304;2023-05-21T02:15:34;15.57;;;6.80;;
69854;SDS011;57146;48.140;16.304;2023-05-21T02:18:01;14.18;;;6.88;;
69854;SDS011;57146;48.140;16.304;2023-05-21T02:20:30;14.20;;;6.68;;
69854;SDS011;57146;48.140;16.304;2023-05-21T02:22:59;12.60;;;6.50;;
69854;SDS011;57146;48.140;16.304;2023-05-21T02:25:50;13.95;;;6.78;;
69854;SDS011;57146;48.140;16.304;2023-05-21T02:28:19;14.27;;;6.65;;
69854;SDS011;57146;48.140;16.304;2023-05-21T02:30:46;14.00;;;6.72;;
69854;SDS011;57146;48.140;16.304;2023-05-21T02:33:14;16.70;;;7.00;;
69854;SDS011;57146;48.140;16.304;2023-05-21T02:35:43;12.67;;;6.20;;
69854;SDS011;57146;48.140;16.304;2023-05-21T02:38:11;14.43;;;6.80;;
69854;SDS011;57146;48.140;16.304;2023-05-21T02:40:38;12.32;;;6.13;;
69854;SDS011;57146;48.140;16.304;2023-05-21T02:43:05;13.63;;;5.97;;
69854;SDS011;57146;48.140;16.304;2023-05-21T02:45:33;12.15;;;5.88;;
69854;SDS011;57146;48.140;16.304;2023-05-21T02:48:01;14.07;;;6.10;;
69854;SDS011;57146;48.140;16.304;2023-05-21T02:50:31;12.02;;;5.85;;
69854;SDS011;57146;48.140;16.304;2023-05-21T02:52:59;12.45;;;6.32;;
69854;SDS011;57146;48.140;16.304;2023-05-21T02:55:28;12.18;;;5.97;;
69854;SDS011;57146;48.140;16.304;2023-05-21T02:57:56;13.30;;;6.13;;
69854;SDS011;57146;48.140;16.304;2023-05-21T03:00:26;12.60;;;5.93;;
69854;SDS011;57146;48.140;16.304;2023-05-21T03:02:53;12.27;;;5.85;;
69854;SDS011;57146;48.140;16.304;2023-05-21T03:05:20;18.73;;;7.28;;
69854;SDS011;57146;48.140;16.304;2023-05-21T03:07:50;13.73;;;6.40;;
69854;SDS011;57146;48.140;16.304;2023-05-21T03:10:17;12.32;;;6.10;;
69854;SDS011;57146;48.140;16.304;2023-05-21T03:12:44;14.70;;;7.30;;
69854;SDS011;57146;48.140;16.304;2023-05-21T03:15:11;14.43;;;7.22;;
69854;SDS011;57146;48.140;16.304;2023-05-21T03:17:39;13.30;;;6.45;;
69854;SDS011;57146;48.140;16.304;2023-05-21T03:20:11;13.98;;;6.68;;
69854;SDS011;57146;48.140;16.304;2023-05-21T03:22:38;13.93;;;5.95;;
69854;SDS011;57146;48.140;16.304;2023-05-21T03:25:07;14.87;;;6.60;;
69854;SDS011;57146;48.140;16.304;2023-05-21T03:27:34;13.45;;;6.78;;
69854;SDS011;57146;48.140;16.304;2023-05-21T03:30:04;11.18;;;5.88;;
69854;SDS011;57146;48.140;16.304;2023-05-21T03:32:58;13.63;;;6.15;;
69854;SDS011;57146;48.140;16.304;2023-05-21T03:35:26;13.00;;;5.95;;
69854;SDS011;57146;48.140;16.304;2023-05-21T03:37:54;14.10;;;6.00;;
69854;SDS011;57146;48.140;16.304;2023-05-21T03:40:21;13.05;;;6.30;;
69854;SDS011;57146;48.140;16.304;2023-05-21T03:42:49;15.38;;;7.07;;
69854;SDS011;57146;48.140;16.304;2023-05-21T03:45:16;14.18;;;6.28;;
69854;SDS011;57146;48.140;16.304;2023-05-21T03:48:19;13.57;;;6.20;;
69854;SDS011;57146;48.140;16.304;2023-05-21T03:50:48;14.27;;;6.30;;
69854;SDS011;57146;48.140;16.304;2023-05-21T03:53:15;12.77;;;5.93;;
69854;SDS011;57146;48.140;16.304;2023-05-21T03:55:43;16.20;;;6.60;;
69854;SDS011;57146;48.140;16.304;2023-05-21T03:58:11;14.18;;;6.80;;
69854;SDS011;57146;48.140;16.304;2023-05-21T04:00:38;13.98;;;6.32;;
69854;SDS011;57146;48.140;16.304;2023-05-21T04:03:06;14.40;;;6.50;;
69854;SDS011;57146;48.140;16.304;2023-05-21T04:05:33;13.95;;;6.70;;
69854;SDS011;57146;48.140;16.304;2023-05-21T04:08:02;14.40;;;6.93;;
69854;SDS011;57146;48.140;16.304;2023-05-21T04:10:36;13.15;;;6.40;;
69854;SDS011;57146;48.140;16.304;2023-05-21T04:13:03;14.75;;;6.47;;
69854;SDS011;57146;48.140;16.304;2023-05-21T04:15:31;13.13;;;6.53;;
69854;SDS011;57146;48.140;16.304;2023-05-21T04:17:58;12.30;;;5.38;;
69854;SDS011;57146;48.140;16.304;2023-05-21T04:20:28;13.68;;;6.38;;
69854;SDS011;57146;48.140;16.304;2023-05-21T04:22:55;14.13;;;6.80;;
69854;SDS011;57146;48.140;16.304;2023-05-21T04:25:22;14.57;;;6.90;;
69854;SDS011;57146;48.140;16.304;2023-05-21T04:27:49;14.57;;;6.90;;
69854;SDS011;57146;48.140;16.304;2023-05-21T04:30:16;13.98;;;6.85;;
69854;SDS011;57146;48.140;16.304;2023-05-21T04:32:45;14.40;;;6.80;;
69854;SDS011;57146;48.140;16.304;2023-05-21T04:35:12;14.00;;;6.78;;
69854;SDS011;57146;48.140;16.304;2023-05-21T04:37:40;14.98;;;6.57;;
69854;SDS011;57146;48.140;16.304;2023-05-21T04:40:08;14.10;;;6.40;;
69854;SDS011;57146;48.140;16.304;2023-05-21T04:42:36;15.70;;;6.93;;
69854;SDS011;57146;48.140;16.304;2023-05-21T04:45:04;12.20;;;6.07;;
69854;SDS011;57146;48.140;16.304;2023-05-21T04:47:35;12.10;;;6.25;;
69854;SDS011;57146;48.140;16.304;2023-05-21T04:50:02;12.13;;;6.18;;
69854;SDS011;57146;48.140;16.304;2023-05-21T04:52:31;12.20;;;6.07;;
69854;SDS011;57146;48.140;16.304;2023-05-21T04:54:58;11.85;;;5.82;;
69854;SDS011;57146;48.140;16.304;2023-05-21T04:57:26;15.05;;;6.25;;
69854;SDS011;57146;48.140;16.304;2023-05-21T04:59:53;13.65;;;6.45;;
69854;SDS011;57146;48.140;16.304;2023-05-21T05:02:21;13.45;;;6.60;;
69854;SDS011;57146;48.140;16.304;2023-05-21T05:04:48;13.40;;;6.73;;
69854;SDS011;57146;48.140;16.304;2023-05-21T05:07:16;13.77;;;6.50;;
69854;SDS011;57146;48.140;16.304;2023-05-21T05:09:42;13.35;;;6.30;;
69854;SDS011;57146;48.140;16.304;2023-05-21T05:12:11;14.68;;;6.78;;
69854;SDS011;57146;48.140;16.304;2023-05-21T05:14:38;13.82;;;6.88;;
69854;SDS011;57146;48.140;16.304;2023-05-21T05:17:05;13.83;;;6.70;;
69854;SDS011;57146;48.140;16.304;2023-05-21T05:19:32;12.18;;;6.57;;
69854;SDS011;57146;48.140;16.304;2023-05-21T05:21:59;14.27;;;6.40;;
69854;SDS011;57146;48.140;16.304;2023-05-21T05:24:28;12.82;;;6.20;;
69854;SDS011;57146;48.140;16.304;2023-05-21T05:26:57;12.02;;;5.90;;
69854;SDS011;57146;48.140;16.304;2023-05-21T05:29:24;13.20;;;6.20;;
69854;SDS011;57146;48.140;16.304;2023-05-21T05:31:51;12.57;;;5.95;;
69854;SDS011;57146;48.140;16.304;2023-05-21T05:34:20;13.52;;;6.82;;
69854;SDS011;57146;48.140;16.304;2023-05-21T05:36:48;13.98;;;6.60;;
69854;SDS011;57146;48.140;16.304;2023-05-21T05:39:15;15.18;;;6.60;;
69854;SDS011;57146;48.140;16.304;2023-05-21T05:41:45;13.97;;;6.10;;
69854;SDS011;57146;48.140;16.304;2023-05-21T05:44:12;13.90;;;7.00;;
69854;SDS011;57146;48.140;16.304;2023-05-21T05:47:03;12.52;;;5.80;;
69854;SDS011;57146;48.140;16.304;2023-05-21T05:49:30;11.02;;;6.00;;
69854;SDS011;57146;48.140;16.304;2023-05-21T05:51:59;11.70;;;6.03;;
69854;SDS011;57146;48.140;16.304;2023-05-21T05:54:26;10.85;;;5.80;;
69854;SDS011;57146;48.140;16.304;2023-05-21T05:56:53;11.70;;;6.05;;
69854;SDS011;57146;48.140;16.304;2023-05-21T05:59:20;11.80;;;6.05;;
69854;SDS011;57146;48.140;16.304;2023-05-21T06:01:49;11.25;;;5.90;;
69854;SDS011;57146;48.140;16.304;2023-05-21T06:04:17;11.13;;;5.43;;
69854;SDS011;57146;48.140;16.304;2023-05-21T06:06:44;12.77;;;5.70;;
69854;SDS011;57146;48.140;16.304;2023-05-21T06:09:10;13.88;;;5.22;;
69854;SDS011;57146;48.140;16.304;2023-05-21T06:12:04;12.35;;;5.57;;
69854;SDS011;57146;48.140;16.304;2023-05-21T06:14:33;9.73;;;5.22;;
69854;SDS011;57146;48.140;16.304;2023-05-21T06:17:00;9.38;;;5.35;;
69854;SDS011;57146;48.140;16.304;2023-05-21T06:19:28;10.95;;;5.43;;
69854;SDS011;57146;48.140;16.304;2023-05-21T06:22:20;9.65;;;5.07;;
69854;SDS011;57146;48.140;16.304;2023-05-21T06:24:51;10.75;;;5.05;;
69854;SDS011;57146;48.140;16.304;2023-05-21T06:27:19;10.35;;;5.35;;
69854;SDS011;57146;48.140;16.304;2023-05-21T06:29:48;10.48;;;5.28;;
69854;SDS011;57146;48.140;16.304;2023-05-21T06:32:41;8.80;;;4.78;;
69854;SDS011;57146;48.140;16.304;2023-05-21T06:35:09;12.18;;;5.35;;
69854;SDS011;57146;48.140;16.304;2023-05-21T06:37:35;8.73;;;4.90;;
69854;SDS011;57146;48.140;16.304;2023-05-21T06:40:06;10.35;;;5.38;;
69854;SDS011;57146;48.140;16.304;2023-05-21T06:42:58;9.85;;;5.00;;
69854;SDS011;57146;48.140;16.304;2023-05-21T06:45:35;9.10;;;4.85;;
69854;SDS011;57146;48.140;16.304;2023-05-21T06:48:22;9.90;;;5.30;;
69854;SDS011;57146;48.140;16.304;2023-05-21T06:50:49;11.38;;;4.47;;
69854;SDS011;57146;48.140;16.304;2023-05-21T06:53:16;9.77;;;4.70;;
69854;SDS011;57146;48.140;16.304;2023-05-21T06:55:44;9.65;;;4.70;;
69854;SDS011;57146;48.140;16.304;2023-05-21T06:58:19;9.02;;;4.28;;
69854;SDS011;57146;48.140;16.304;2023-05-21T07:00:46;10.18;;;4.93;;
69854;SDS011;57146;48.140;16.304;2023-05-21T07:03:38;10.35;;;4.90;;
69854;SDS011;57146;48.140;16.304;2023-05-21T07:06:06;9.50;;;5.00;;
69854;SDS011;57146;48.140;16.304;2023-05-21T07:08:33;8.75;;;4.85;;
69854;SDS011;57146;48.140;16.304;2023-05-21T07:11:07;9.48;;;4.90;;
69854;SDS011;57146;48.140;16.304;2023-05-21T07:13:34;9.20;;;5.07;;
69854;SDS011;57146;48.140;16.304;2023-05-21T07:16:04;8.27;;;5.00;;
69854;SDS011;57146;48.140;16.304;2023-05-21T07:18:32;9.73;;;4.70;;
69854;SDS011;57146;48.140;16.304;2023-05-21T07:20:59;9.52;;;5.03;;
69854;SDS011;57146;48.140;16.304;2023-05-21T07:23:27;11.77;;;5.40;;
69854;SDS011;57146;48.140;16.304;2023-05-21T07:25:54;10.30;;;5.35;;
69854;SDS011;57146;48.140;16.304;2023-05-21T07:28:23;10.18;;;5.35;;
69854;SDS011;57146;48.140;16.304;2023-05-21T07:30:50;10.75;;;4.80;;
69854;SDS011;57146;48.140;16.304;2023-05-21T07:33:23;10.55;;;5.50;;
69854;SDS011;57146;48.140;16.304;2023-05-21T07:35:51;9.88;;;5.57;;
69854;SDS011;57146;48.140;16.304;2023-05-21T07:38:18;9.93;;;5.30;;
69854;SDS011;57146;48.140;16.304;2023-05-21T07:40:45;10.00;;;5.35;;
69854;SDS011;57146;48.140;16.304;2023-05-21T07:43:13;12.15;;;5.68;;
69854;SDS011;57146;48.140;16.304;2023-05-21T07:45:43;10.75;;;5.88;;
69854;SDS011;57146;48.140;16.304;2023-05-21T07:48:10;9.13;;;5.35;;
69854;SDS011;57146;48.140;16.304;2023-05-21T07:50:48;9.70;;;5.43;;
69854;SDS011;57146;48.140;16.304;2023-05-21T07:53:15;11.20;;;5.97;;
69854;SDS011;57146;48.140;16.304;2023-05-21T07:55:45;10.77;;;5.72;;
69854;SDS011;57146;48.140;16.304;2023-05-21T07:58:16;11.73;;;5.55;;
69854;SDS011;57146;48.140;16.304;2023-05-21T08:00:45;11.40;;;5.90;;
69854;SDS011;57146;48.140;16.304;2023-05-21T08:03:13;10.57;;;5.55;;
69854;SDS011;57146;48.140;16.304;2023-05-21T08:05:45;11.40;;;5.55;;
69854;SDS011;57146;48.140;16.304;2023-05-21T08:08:17;10.25;;;5.63;;
69854;SDS011;57146;48.140;16.304;2023-05-21T08:10:50;10.52;;;5.72;;
69854;SDS011;57146;48.140;16.304;2023-05-21T08:13:21;10.27;;;5.25;;
69854;SDS011;57146;48.140;16.304;2023-05-21T08:15:50;9.52;;;5.45;;
69854;SDS011;57146;48.140;16.304;2023-05-21T08:18:20;8.73;;;5.20;;
69854;SDS011;57146;48.140;16.304;2023-05-21T08:20:49;9.82;;;5.35;;
69854;SDS011;57146;48.140;16.304;2023-05-21T08:23:18;11.60;;;5.32;;
69854;SDS011;57146;48.140;16.304;2023-05-21T08:25:50;10.70;;;5.30;;
69854;SDS011;57146;48.140;16.304;2023-05-21T08:28:17;9.48;;;4.90;;
69854;SDS011;57146;48.140;16.304;2023-05-21T08:30:45;8.73;;;4.80;;
69854;SDS011;57146;48.140;16.304;2023-05-21T08:33:14;11.82;;;5.10;;
69854;SDS011;57146;48.140;16.304;2023-05-21T08:35:41;8.95;;;4.90;;
69854;SDS011;57146;48.140;16.304;2023-05-21T08:38:22;8.48;;;4.80;;
69854;SDS011;57146;48.140;16.304;2023-05-21T08:41:11;9.95;;;4.63;;
69854;SDS011;57146;48.140;16.304;2023-05-21T08:43:40;10.40;;;4.90;;
69854;SDS011;57146;48.140;16.304;2023-05-21T08:46:11;9.00;;;4.60;;
69854;SDS011;57146;48.140;16.304;2023-05-21T08:48:40;9.63;;;4.45;;
69854;SDS011;57146;48.140;16.304;2023-05-21T08:51:09;7.30;;;3.95;;
69854;SDS011;57146;48.140;16.304;2023-05-21T08:53:42;12.70;;;4.75;;
69854;SDS011;57146;48.140;16.304;2023-05-21T08:56:15;7.82;;;4.32;;
69854;SDS011;57146;48.140;16.304;2023-05-21T08:58:47;13.88;;;4.43;;
69854;SDS011;57146;48.140;16.304;2023-05-21T09:01:17;8.20;;;4.00;;
69854;SDS011;57146;48.140;16.304;2023-05-21T09:03:51;7.97;;;4.40;;
69854;SDS011;57146;48.140;16.304;2023-05-21T09:06:39;8.82;;;4.18;;
69854;SDS011;57146;48.140;16.304;2023-05-21T09:09:12;8.52;;;4.28;;
69854;SDS011;57146;48.140;16.304;2023-05-21T09:11:46;8.38;;;4.18;;
69854;SDS011;57146;48.140;16.304;2023-05-21T09:14:16;8.95;;;4.10;;
69854;SDS011;57146;48.140;16.304;2023-05-21T09:17:03;7.68;;;4.22;;
69854;SDS011;57146;48.140;16.304;2023-05-21T09:19:31;8.98;;;4.55;;
69854;SDS011;57146;48.140;16.304;2023-05-21T09:22:02;8.15;;;4.50;;
69854;SDS011;57146;48.140;16.304;2023-05-21T09:24:31;10.05;;;4.38;;
69854;SDS011;57146;48.140;16.304;2023-05-21T09:27:05;10.27;;;4.30;;
69854;SDS011;57146;48.140;16.304;2023-05-21T09:29:34;7.50;;;4.05;;
69854;SDS011;57146;48.140;16.304;2023-05-21T09:32:04;6.80;;;3.97;;
69854;SDS011;57146;48.140;16.304;2023-05-21T09:34:34;8.55;;;4.35;;
69854;SDS011;57146;48.140;16.304;2023-05-21T09:37:05;7.85;;;4.38;;
69854;SDS011;57146;48.140;16.304;2023-05-21T09:39:43;8.38;;;4.43;;
69854;SDS011;57146;48.140;16.304;2023-05-21T09:42:13;9.90;;;4.40;;
69854;SDS011;57146;48.140;16.304;2023-05-21T09:44:43;6.50;;;4.03;;
69854;SDS011;57146;48.140;16.304;2023-05-21T09:47:12;7.78;;;4.25;;
69854;SDS011;57146;48.140;16.304;2023-05-21T09:50:16;7.68;;;3.88;;
69854;SDS011;57146;48.140;16.304;2023-05-21T09:52:47;11.18;;;4.45;;
69854;SDS011;57146;48.140;16.304;2023-05-21T09:55:15;7.45;;;4.20;;
69854;SDS011;57146;48.140;16.304;2023-05-21T09:57:43;8.13;;;4.07;;
69854;SDS011;57146;48.140;16.304;2023-05-21T10:00:19;7.75;;;4.18;;
69854;SDS011;57146;48.140;16.304;2023-05-21T10:02:48;7.95;;;4.47;;
69854;SDS011;57146;48.140;16.304;2023-05-21T10:05:23;8.43;;;4.10;;
69854;SDS011;57146;48.140;16.304;2023-05-21T10:07:59;7.35;;;4.03;;
69854;SDS011;57146;48.140;16.304;2023-05-21T10:10:29;8.20;;;4.10;;
69854;SDS011;57146;48.140;16.304;2023-05-21T10:13:03;6.63;;;3.67;;
69854;SDS011;57146;48.140;16.304;2023-05-21T10:15:37;7.53;;;3.85;;
69854;SDS011;57146;48.140;16.304;2023-05-21T10:18:08;7.07;;;3.90;;
69854;SDS011;57146;48.140;16.304;2023-05-21T10:20:36;8.35;;;3.95;;
69854;SDS011;57146;48.140;16.304;2023-05-21T10:23:04;7.18;;;4.05;;
69854;SDS011;57146;48.140;16.304;2023-05-21T10:25:31;8.23;;;3.88;;
69854;SDS011;57146;48.140;16.304;2023-05-21T10:27:59;7.75;;;4.22;;
69854;SDS011;57146;48.140;16.304;2023-05-21T10:30:26;6.75;;;3.58;;
69854;SDS011;57146;48.140;16.304;2023-05-21T10:32:54;6.95;;;3.97;;
69854;SDS011;57146;48.140;16.304;2023-05-21T10:35:25;8.18;;;3.90;;
69854;SDS011;57146;48.140;16.304;2023-05-21T10:37:53;7.38;;;3.70;;
69854;SDS011;57146;48.140;16.304;2023-05-21T10:40:24;7.03;;;4.00;;
69854;SDS011;57146;48.140;16.304;2023-05-21T10:57:13;8.57;;;3.60;;
69854;SDS011;57146;48.140;16.304;2023-05-21T10:59:57;5.97;;;3.33;;
69854;SDS011;57146;48.140;16.304;2023-05-21T11:02:25;7.75;;;3.75;;
69854;SDS011;57146;48.140;16.304;2023-05-21T11:04:58;7.15;;;3.92;;
69854;SDS011;57146;48.140;16.304;2023-05-21T11:07:53;6.32;;;3.47;;
69854;SDS011;57146;48.140;16.304;2023-05-21T11:10:29;9.07;;;3.95;;
69854;SDS011;57146;48.140;16.304;2023-05-21T11:13:04;7.07;;;3.65;;
69854;SDS011;57146;48.140;16.304;2023-05-21T11:21:20;7.93;;;3.97;;
69854;SDS011;57146;48.140;16.304;2023-05-21T11:23:52;6.22;;;3.83;;
69854;SDS011;57146;48.140;16.304;2023-05-21T11:26:21;6.18;;;3.70;;
69854;SDS011;57146;48.140;16.304;2023-05-21T11:31:31;5.82;;;3.60;;
69854;SDS011;57146;48.140;16.304;2023-05-21T11:34:12;8.35;;;3.80;;
69854;SDS011;57146;48.140;16.304;2023-05-21T11:36:41;7.07;;;3.85;;
69854;SDS011;57146;48.140;16.304;2023-05-21T11:39:11;6.68;;;3.47;;
69854;SDS011;57146;48.140;16.304;2023-05-21T11:44:46;6.28;;;3.60;;
69854;SDS011;57146;48.140;16.304;2023-05-21T11:47:15;7.97;;;3.50;;
69854;SDS011;57146;48.140;16.304;2023-05-21T11:49:44;7.00;;;3.78;;
69854;SDS011;57146;48.140;16.304;2023-05-21T11:52:12;6.65;;;3.60;;
69854;SDS011;57146;48.140;16.304;2023-05-21T11:54:43;28.05;;;17.15;;
69854;SDS011;57146;48.140;16.304;2023-05-21T11:57:13;11.52;;;6.43;;
69854;SDS011;57146;48.140;16.304;2023-05-21T11:59:41;15.98;;;9.70;;
69854;SDS011;57146;48.140;16.304;2023-05-21T12:02:08;8.60;;;5.03;;
69854;SDS011;57146;48.140;16.304;2023-05-21T12:04:44;7.18;;;3.95;;
69854;SDS011;57146;48.140;16.304;2023-05-21T12:07:16;6.43;;;3.60;;
69854;SDS011;57146;48.140;16.304;2023-05-21T12:09:48;5.85;;;3.53;;
69854;SDS011;57146;48.140;16.304;2023-05-21T12:12:23;7.32;;;3.80;;
69854;SDS011;57146;48.140;16.304;2023-05-21T12:14:59;8.10;;;3.60;;
69854;SDS011;57146;48.140;16.304;2023-05-21T12:17:27;6.82;;;3.58;;
69854;SDS011;57146;48.140;16.304;2023-05-21T12:19:58;9.00;;;3.50;;
69854;SDS011;57146;48.140;16.304;2023-05-21T12:22:26;6.40;;;3.80;;
69854;SDS011;57146;48.140;16.304;2023-05-21T12:24:53;6.63;;;3.83;;
69854;SDS011;57146;48.140;16.304;2023-05-21T12:27:20;7.07;;;3.58;;
69854;SDS011;57146;48.140;16.304;2023-05-21T12:29:49;5.68;;;3.60;;
69854;SDS011;57146;48.140;16.304;2023-05-21T12:32:18;7.03;;;3.47;;
69854;SDS011;57146;48.140;16.304;2023-05-21T12:34:48;6.35;;;3.60;;
69854;SDS011;57146;48.140;16.304;2023-05-21T12:37:20;5.90;;;3.70;;
69854;SDS011;57146;48.140;16.304;2023-05-21T12:39:49;6.82;;;3.70;;
69854;SDS011;57146;48.140;16.304;2023-05-21T12:42:24;8.35;;;3.60;;
69854;SDS011;57146;48.140;16.304;2023-05-21T12:44:52;8.95;;;3.90;;
69854;SDS011;57146;48.140;16.304;2023-05-21T12:47:23;7.70;;;4.00;;
69854;SDS011;57146;48.140;16.304;2023-05-21T12:49:57;7.78;;;3.90;;
69854;SDS011;57146;48.140;16.304;2023-05-21T12:52:25;7.40;;;3.72;;
69854;SDS011;57146;48.140;16.304;2023-05-21T12:54:54;8.63;;;4.03;;
69854;SDS011;57146;48.140;16.304;2023-05-21T12:57:23;6.38;;;3.55;;
69854;SDS011;57146;48.140;16.304;2023-05-21T12:59:56;6.13;;;4.13;;
69854;SDS011;57146;48.140;16.304;2023-05-21T13:02:30;5.78;;;3.65;;
69854;SDS011;57146;48.140;16.304;2023-05-21T13:04:59;8.05;;;4.10;;
69854;SDS011;57146;48.140;16.304;2023-05-21T13:07:28;6.97;;;3.80;;
69854;SDS011;57146;48.140;16.304;2023-05-21T13:09:56;9.20;;;4.37;;
69854;SDS011;57146;48.140;16.304;2023-05-21T13:12:26;9.00;;;4.70;;
69854;SDS011;57146;48.140;16.304;2023-05-21T13:14:56;6.32;;;3.85;;
69854;SDS011;57146;48.140;16.304;2023-05-21T13:17:24;10.23;;;5.63;;
69854;SDS011;57146;48.140;16.304;2023-05-21T13:20:18;7.15;;;3.63;;
69854;SDS011;57146;48.140;16.304;2023-05-21T13:22:48;5.87;;;3.87;;
69854;SDS011;57146;48.140;16.304;2023-05-21T13:25:20;10.40;;;5.55;;
69854;SDS011;57146;48.140;16.304;2023-05-21T13:27:52;8.90;;;4.88;;
69854;SDS011;57146;48.140;16.304;2023-05-21T13:30:20;11.00;;;5.30;;
69854;SDS011;57146;48.140;16.304;2023-05-21T13:32:48;9.50;;;4.90;;
69854;SDS011;57146;48.140;16.304;2023-05-21T13:35:17;7.27;;;4.00;;
69854;SDS011;57146;48.140;16.304;2023-05-21T13:37:44;7.70;;;4.13;;
69854;SDS011;57146;48.140;16.304;2023-05-21T13:40:13;6.53;;;3.78;;
69854;SDS011;57146;48.140;16.304;2023-05-21T13:42:45;7.07;;;3.53;;
69854;SDS011;57146;48.140;16.304;2023-05-21T13:45:14;8.13;;;3.35;;
69854;SDS011;57146;48.140;16.304;2023-05-21T13:47:47;7.97;;;3.83;;
69854;SDS011;57146;48.140;16.304;2023-05-21T13:50:15;6.30;;;3.63;;
69854;SDS011;57146;48.140;16.304;2023-05-21T13:52:43;6.72;;;3.67;;
69854;SDS011;57146;48.140;16.304;2023-05-21T13:55:10;5.75;;;3.35;;
69854;SDS011;57146;48.140;16.304;2023-05-21T13:57:38;6.88;;;3.40;;
69854;SDS011;57146;48.140;16.304;2023-05-21T14:00:05;8.40;;;4.57;;
69854;SDS011;57146;48.140;16.304;2023-05-21T14:02:32;6.32;;;3.55;;
69854;SDS011;57146;48.140;16.304;2023-05-21T14:05:01;5.90;;;3.00;;
69854;SDS011;57146;48.140;16.304;2023-05-21T14:07:29;5.90;;;3.40;;
69854;SDS011;57146;48.140;16.304;2023-05-21T14:09:57;6.82;;;3.55;;
69854;SDS011;57146;48.140;16.304;2023-05-21T14:12:25;6.30;;;3.27;;
69854;SDS011;57146;48.140;16.304;2023-05-21T14:14:53;7.43;;;3.53;;
69854;SDS011;57146;48.140;16.304;2023-05-21T14:17:21;5.75;;;3.45;;
69854;SDS011;57146;48.140;16.304;2023-05-21T14:19:48;5.10;;;2.95;;
69854;SDS011;57146;48.140;16.304;2023-05-21T14:22:15;5.60;;;2.97;;
69854;SDS011;57146;48.140;16.304;2023-05-21T14:24:43;5.57;;;3.13;;
69854;SDS011;57146;48.140;16.304;2023-05-21T14:27:10;7.63;;;3.30;;
69854;SDS011;57146;48.140;16.304;2023-05-21T14:29:42;6.25;;;3.58;;
69854;SDS011;57146;48.140;16.304;2023-05-21T14:32:09;6.20;;;2.97;;
69854;SDS011;57146;48.140;16.304;2023-05-21T14:34:36;6.47;;;3.28;;
69854;SDS011;57146;48.140;16.304;2023-05-21T14:37:03;7.30;;;3.10;;
69854;SDS011;57146;48.140;16.304;2023-05-21T14:39:30;6.90;;;3.30;;
69854;SDS011;57146;48.140;16.304;2023-05-21T14:41:57;5.47;;;3.15;;
69854;SDS011;57146;48.140;16.304;2023-05-21T14:44:24;6.40;;;3.78;;
69854;SDS011;57146;48.140;16.304;2023-05-21T14:46:52;13.23;;;6.80;;
69854;SDS011;57146;48.140;16.304;2023-05-21T14:49:19;12.07;;;6.13;;
69854;SDS011;57146;48.140;16.304;2023-05-21T14:51:46;6.85;;;3.40;;
69854;SDS011;57146;48.140;16.304;2023-05-21T14:54:13;5.20;;;3.05;;
69854;SDS011;57146;48.140;16.304;2023-05-21T14:56:40;6.80;;;3.70;;
69854;SDS011;57146;48.140;16.304;2023-05-21T14:59:07;5.93;;;3.17;;
69854;SDS011;57146;48.140;16.304;2023-05-21T15:01:34;5.10;;;3.13;;
69854;SDS011;57146;48.140;16.304;2023-05-21T15:04:01;6.00;;;3.13;;
69854;SDS011;57146;48.140;16.304;2023-05-21T15:06:28;4.95;;;2.97;;
69854;SDS011;57146;48.140;16.304;2023-05-21T15:08:55;6.32;;;3.40;;
69854;SDS011;57146;48.140;16.304;2023-05-21T15:11:23;7.03;;;3.53;;
69854;SDS011;57146;48.140;16.304;2023-05-21T15:13:50;6.78;;;3.80;;
69854;SDS011;57146;48.140;16.304;2023-05-21T15:16:17;6.28;;;3.30;;
69854;SDS011;57146;48.140;16.304;2023-05-21T15:18:45;7.28;;;3.03;;
69854;SDS011;57146;48.140;16.304;2023-05-21T15:21:13;5.25;;;2.90;;